Time;durP1;ratioP1;P1;durP2;ratioP2;P2;SDS_P1;SDS_P2;PMS_P1;PMS_P2;Temp;Humidity;BMP_temperature;BMP_pressure;BME280_temperature;BME280_humidity;BME280_pressure;Samples;Min_cycle;Max_cycle;Signal;HPM_P1;HPM_P2
2023/08/29 00:01:33;;;;;;;0.93;0.93;;;22.50;67.60;;;;;;5110471;27;43496;-77
2023/08/29 00:04:02;;;;;;;1.00;1.00;;;22.60;67.20;;;;;;5105386;27;44310;-77
2023/08/29 00:06:30;;;;;;;1.10;1.10;;;22.60;66.90;;;;;;5117838;27;43353;-77
2023/08/29 00:08:58;;;;;;;1.00;1.00;;;22.60;66.90;;;;;;5116339;27;43465;-77
2023/08/29 00:11:27;;;;;;;1.00;1.00;;;22.60;67.20;;;;;;5120081;27;43383;-77
2023/08/29 00:13:56;;;;;;;1.00;1.00;;;22.50;67.30;;;;;;5119368;27;43927;-77
2023/08/29 00:16:24;;;;;;;0.90;0.90;;;22.50;67.40;;;;;;5117733;27;44797;-78
2023/08/29 00:18:52;;;;;;;1.00;1.00;;;22.40;67.50;;;;;;5118223;27;43481;-77
2023/08/29 00:21:21;;;;;;;1.00;1.00;;;22.40;67.70;;;;;;5117755;27;43988;-78
2023/08/29 00:23:49;;;;;;;1.00;1.00;;;22.40;67.90;;;;;;5117332;27;45679;-77
2023/08/29 00:26:17;;;;;;;1.10;1.10;;;22.30;67.80;;;;;;5112885;27;44698;-78
2023/08/29 00:28:47;;;;;;;1.07;1.07;;;22.30;67.70;;;;;;5118015;27;43347;-77
2023/08/29 00:31:15;;;;;;;0.80;0.80;;;22.30;67.90;;;;;;5117488;27;43470;-77
2023/08/29 00:33:43;;;;;;;1.00;1.00;;;22.30;68.00;;;;;;5116515;27;46039;-78
2023/08/29 00:36:12;;;;;;;1.13;1.13;;;22.30;68.10;;;;;;5119391;27;43470;-77
2023/08/29 00:38:41;;;;;;;1.00;1.00;;;22.30;68.00;;;;;;5146242;27;43522;-77
2023/08/29 00:41:10;;;;;;;1.00;1.00;;;22.30;68.00;;;;;;5116812;27;43406;-78
2023/08/29 00:43:39;;;;;;;1.00;1.00;;;22.40;67.70;;;;;;5119057;27;43723;-78
2023/08/29 00:46:07;;;;;;;1.13;1.13;;;22.50;67.50;;;;;;5118143;27;44716;-78
2023/08/29 00:48:35;;;;;;;1.00;1.00;;;22.50;67.50;;;;;;5118756;27;43460;-78
2023/08/29 00:51:03;;;;;;;1.00;1.00;;;22.40;67.50;;;;;;5114776;27;43494;-78
2023/08/29 00:53:35;;;;;;;1.00;1.00;;;22.40;67.50;;;;;;5116573;27;45691;-78
2023/08/29 00:56:05;;;;;;;1.00;1.00;;;22.40;67.50;;;;;;5116622;27;44717;-78
2023/08/29 00:58:33;;;;;;;1.47;1.37;;;22.40;67.60;;;;;;5117013;27;43407;-77
2023/08/29 01:01:01;;;;;;;1.00;1.00;;;22.40;67.80;;;;;;5119811;27;43435;-75
2023/08/29 01:03:30;;;;;;;1.03;1.03;;;22.30;67.80;;;;;;5135113;22;44482;-70
2023/08/29 01:05:58;;;;;;;1.03;1.03;;;22.30;67.90;;;;;;5108447;27;44940;-70
2023/08/29 01:08:26;;;;;;;1.00;1.00;;;22.30;67.90;;;;;;5116771;27;43414;-70
2023/08/29 01:10:56;;;;;;;1.10;1.10;;;22.30;68.00;;;;;;5119574;27;43372;-70
2023/08/29 01:13:30;;;;;;;0.90;0.90;;;22.30;68.20;;;;;;5106079;27;46027;-70
2023/08/29 01:15:59;;;;;;;1.00;1.00;;;22.20;68.20;;;;;;5106534;27;44904;-70
2023/08/29 01:18:28;;;;;;;1.33;1.00;;;22.30;68.10;;;;;;5098684;27;43378;-71
2023/08/29 01:21:07;;;;;;;1.17;1.17;;;22.40;67.90;;;;;;5104693;27;43462;-71
2023/08/29 01:23:40;;;;;;;1.10;1.10;;;22.50;67.50;;;;;;5112870;27;46004;-70
2023/08/29 01:26:12;;;;;;;1.17;1.17;;;22.60;67.00;;;;;;5107862;27;44697;-70
2023/08/29 01:28:43;;;;;;;1.20;1.20;;;22.60;66.90;;;;;;5124505;27;43811;-70
2023/08/29 01:31:11;;;;;;;1.07;1.07;;;22.60;67.00;;;;;;5133489;27;43456;-71
2023/08/29 01:33:40;;;;;;;1.00;1.00;;;22.60;67.40;;;;;;5112533;27;46107;-70
2023/08/29 01:36:08;;;;;;;1.00;1.00;;;22.50;67.40;;;;;;5131521;27;44626;-70
2023/08/29 01:38:36;;;;;;;1.10;1.10;;;22.40;67.50;;;;;;5129119;27;43478;-70
2023/08/29 01:41:07;;;;;;;1.03;1.03;;;22.40;67.60;;;;;;5100745;27;43445;-70
2023/08/29 01:43:36;;;;;;;0.90;0.90;;;22.40;67.90;;;;;;5106039;27;45693;-70
2023/08/29 01:46:04;;;;;;;1.17;1.17;;;22.30;68.00;;;;;;5112569;27;43626;-70
2023/08/29 01:48:32;;;;;;;1.10;1.10;;;22.30;68.00;;;;;;5102335;27;43400;-71
2023/08/29 01:51:00;;;;;;;1.20;1.20;;;22.30;68.00;;;;;;5109827;27;44163;-70
2023/08/29 01:53:29;;;;;;;0.90;0.90;;;22.30;68.20;;;;;;5110514;27;45701;-69
2023/08/29 01:56:00;;;;;;;0.90;0.90;;;22.30;68.30;;;;;;5106046;27;43459;-70
2023/08/29 01:58:28;;;;;;;1.10;1.10;;;22.30;68.40;;;;;;5117276;27;43386;-70
2023/08/29 02:00:57;;;;;;;1.07;1.07;;;22.20;68.30;;;;;;5127703;27;43567;-70
2023/08/29 02:03:44;;;;;;;0.90;0.90;;;22.20;68.30;;;;;;5108554;27;45644;-71
2023/08/29 02:06:12;;;;;;;0.97;0.97;;;22.20;68.40;;;;;;5106202;27;44691;-71
2023/08/29 02:08:41;;;;;;;1.10;1.10;;;22.20;68.40;;;;;;5115778;27;43401;-70
2023/08/29 02:11:09;;;;;;;1.17;1.17;;;22.20;68.40;;;;;;5115493;27;43540;-70
2023/08/29 02:13:37;;;;;;;1.00;1.00;;;22.30;68.30;;;;;;5111805;27;45660;-70
2023/08/29 02:16:06;;;;;;;1.03;1.03;;;22.40;68.10;;;;;;5110146;27;43423;-70
2023/08/29 02:18:35;;;;;;;1.00;1.00;;;22.50;67.70;;;;;;5108700;27;43452;-71
2023/08/29 02:21:03;;;;;;;1.00;1.00;;;22.60;67.30;;;;;;5132960;27;43407;-70
2023/08/29 02:23:32;;;;;;;1.00;1.00;;;22.60;67.10;;;;;;5130180;27;44026;-70
2023/08/29 02:26:03;;;;;;;1.13;1.13;;;22.60;67.30;;;;;;5133319;27;43389;-70
2023/08/29 02:28:34;;;;;;;1.10;1.10;;;22.50;67.50;;;;;;5117631;27;43356;-71
2023/08/29 02:31:06;;;;;;;1.27;1.27;;;22.50;67.70;;;;;;5110903;27;43446;-71
2023/08/29 02:33:35;;;;;;;1.20;1.20;;;22.40;67.60;;;;;;5108540;27;46013;-67
2023/08/29 02:36:04;;;;;;;1.00;1.00;;;22.40;67.80;;;;;;5112807;27;44620;-66
2023/08/29 02:38:35;;;;;;;1.20;1.20;;;22.40;68.10;;;;;;5121277;27;43503;-65
2023/08/29 02:41:03;;;;;;;1.20;1.20;;;22.30;68.00;;;;;;5094386;27;43434;-66
2023/08/29 02:43:32;;;;;;;1.03;1.03;;;22.30;68.00;;;;;;5118202;27;45772;-65
2023/08/29 02:46:00;;;;;;;1.10;1.10;;;22.30;68.00;;;;;;5094925;27;45132;-67
2023/08/29 02:48:30;;;;;;;1.13;1.13;;;22.40;67.70;;;;;;5102496;27;43383;-67
2023/08/29 02:50:58;;;;;;;1.10;1.10;;;22.50;67.40;;;;;;5092732;27;43620;-66
2023/08/29 02:53:26;;;;;;;1.20;1.20;;;22.50;67.30;;;;;;5111908;27;43611;-66
2023/08/29 02:55:54;;;;;;;1.20;1.20;;;22.50;67.50;;;;;;5119299;27;43437;-70
2023/08/29 02:58:22;;;;;;;1.40;1.40;;;22.40;67.60;;;;;;5097798;27;43603;-66
2023/08/29 03:00:56;;;;;;;1.30;1.20;;;22.40;67.80;;;;;;5125023;27;44092;-66
2023/08/29 03:03:27;;;;;;;1.10;1.10;;;22.30;67.80;;;;;;5105670;27;45955;-65
2023/08/29 03:05:57;;;;;;;1.07;1.07;;;22.30;68.00;;;;;;5087215;27;45106;-66
2023/08/29 03:08:26;;;;;;;1.03;1.03;;;22.30;68.10;;;;;;5066695;28;43942;-67
2023/08/29 03:10:54;;;;;;;2.10;1.30;;;22.30;68.30;;;;;;5075934;28;44007;-67
2023/08/29 03:13:22;;;;;;;1.20;1.20;;;22.20;68.30;;;;;;5093701;27;45133;-67
2023/08/29 03:15:53;;;;;;;1.30;1.30;;;22.20;68.20;;;;;;5094173;27;44635;-67
2023/08/29 03:18:24;;;;;;;1.20;1.20;;;22.30;68.00;;;;;;5085560;27;43450;-66
2023/08/29 03:20:52;;;;;;;1.27;1.27;;;22.30;67.80;;;;;;5088156;27;43574;-66
2023/08/29 03:23:21;;;;;;;1.20;1.20;;;22.30;68.00;;;;;;5073830;28;43899;-72
2023/08/29 03:25:49;;;;;;;2.33;1.23;;;22.30;68.00;;;;;;5091995;27;44712;-72
2023/08/29 03:28:17;;;;;;;1.10;1.10;;;22.30;68.10;;;;;;5079622;28;43486;-70
2023/08/29 03:30:48;;;;;;;1.30;1.30;;;22.30;68.00;;;;;;5082403;27;43605;-71
2023/08/29 03:33:17;;;;;;;1.20;1.20;;;22.30;68.20;;;;;;5086375;28;45931;-72
2023/08/29 03:35:45;;;;;;;1.30;1.30;;;22.30;68.30;;;;;;5081123;28;45037;-72
2023/08/29 03:38:13;;;;;;;1.20;1.20;;;22.20;68.30;;;;;;5078537;28;43384;-72
2023/08/29 03:40:42;;;;;;;1.30;1.30;;;22.20;68.30;;;;;;5079836;27;43861;-72
2023/08/29 03:43:10;;;;;;;1.30;1.30;;;22.30;68.00;;;;;;5097698;27;45645;-73
2023/08/29 03:45:38;;;;;;;1.30;1.30;;;22.40;67.80;;;;;;5085158;28;44400;-71
2023/08/29 03:48:06;;;;;;;1.30;1.30;;;22.50;67.50;;;;;;5098635;27;43963;-72
2023/08/29 03:50:45;;;;;;;1.10;1.10;;;22.50;67.60;;;;;;5097662;27;43820;-71
2023/08/29 03:53:13;;;;;;;1.23;1.23;;;22.40;67.70;;;;;;5089026;28;45634;-72
2023/08/29 03:55:43;;;;;;;1.10;1.10;;;22.40;68.70;;;;;;5075102;27;44468;-70
2023/08/29 03:58:11;;;;;;;1.20;1.20;;;22.30;68.00;;;;;;5092522;27;43519;-71
2023/08/29 04:00:39;;;;;;;1.30;1.30;;;22.30;68.00;;;;;;5093208;27;43387;-71
2023/08/29 04:03:07;;;;;;;1.20;1.20;;;22.30;68.30;;;;;;5114739;27;43838;-73
2023/08/29 04:05:36;;;;;;;1.07;1.07;;;22.30;68.50;;;;;;5106434;27;44855;-73
2023/08/29 04:08:06;;;;;;;1.10;1.10;;;22.20;68.50;;;;;;5093486;27;43384;-72
2023/08/29 04:10:38;;;;;;;1.20;1.20;;;22.20;68.50;;;;;;5122821;27;43364;-72
2023/08/29 04:13:08;;;;;;;1.20;1.20;;;22.30;68.30;;;;;;5099074;27;45869;-70
2023/08/29 04:15:36;;;;;;;1.10;1.10;;;22.40;68.20;;;;;;5101693;27;44736;-71
2023/08/29 04:18:06;;;;;;;1.10;1.10;;;22.40;68.00;;;;;;5095810;27;43422;-71
2023/08/29 04:20:34;;;;;;;1.33;1.33;;;22.40;68.20;;;;;;5103267;27;43578;-72
2023/08/29 04:23:03;;;;;;;1.10;1.10;;;22.30;68.10;;;;;;5119932;27;43843;-71
2023/08/29 04:25:32;;;;;;;1.20;1.20;;;22.30;68.10;;;;;;5127043;27;44046;-72
2023/08/29 04:28:00;;;;;;;1.10;1.10;;;22.30;68.20;;;;;;5109802;27;44106;-72
2023/08/29 04:30:30;;;;;;;1.37;1.37;;;22.30;68.30;;;;;;5118788;27;43615;-71
2023/08/29 04:32:59;;;;;;;1.40;1.40;;;22.20;68.40;;;;;;5100819;27;46024;-69
2023/08/29 04:35:27;;;;;;;1.10;1.10;;;22.20;68.40;;;;;;5114521;27;44693;-70
2023/08/29 04:37:55;;;;;;;1.30;1.30;;;22.20;68.40;;;;;;5089419;28;43359;-69
2023/08/29 04:40:23;;;;;;;1.17;1.17;;;22.20;68.60;;;;;;5104398;27;43415;-69
2023/08/29 04:42:51;;;;;;;1.20;1.20;;;22.20;68.70;;;;;;5095180;27;45683;-71
2023/08/29 04:45:20;;;;;;;1.30;1.30;;;22.20;68.70;;;;;;5094301;28;44949;-70
2023/08/29 04:47:49;;;;;;;1.23;1.23;;;22.20;68.70;;;;;;5106556;27;43446;-71
2023/08/29 04:50:18;;;;;;;1.30;1.30;;;22.30;68.40;;;;;;5104282;27;43607;-70
2023/08/29 04:52:46;;;;;;;1.20;1.20;;;22.40;68.10;;;;;;5116026;27;45673;-70
2023/08/29 04:55:14;;;;;;;1.30;1.30;;;22.50;67.80;;;;;;5103752;27;44135;-70
2023/08/29 04:57:43;;;;;;;1.30;1.30;;;22.50;67.70;;;;;;5107241;27;43345;-70
2023/08/29 05:00:14;;;;;;;1.10;1.10;;;22.50;67.80;;;;;;5116345;27;43577;-70
2023/08/29 05:02:43;;;;;;;1.20;1.20;;;22.40;67.90;;;;;;5092596;27;46123;-71
2023/08/29 05:05:12;;;;;;;1.27;1.13;;;22.40;68.20;;;;;;5097054;27;45062;-69
2023/08/29 05:07:40;;;;;;;1.47;1.47;;;22.30;68.20;;;;;;5087919;27;43488;-70
2023/08/29 05:10:09;;;;;;;1.20;1.20;;;22.30;68.30;;;;;;5096642;28;43380;-70
2023/08/29 05:12:41;;;;;;;1.27;1.27;;;22.30;68.50;;;;;;5086324;28;45943;-70
2023/08/29 05:15:10;;;;;;;1.27;1.27;;;22.20;68.60;;;;;;5094645;28;45031;-70
2023/08/29 05:17:38;;;;;;;1.50;1.50;;;22.20;68.70;;;;;;5102396;27;43408;-70
2023/08/29 05:20:09;;;;;;;1.33;1.33;;;22.20;68.60;;;;;;5112053;27;43885;-70
2023/08/29 05:22:39;;;;;;;1.20;1.20;;;22.20;68.70;;;;;;5091618;28;45952;-69
2023/08/29 05:25:08;;;;;;;1.50;1.50;;;22.20;68.90;;;;;;5080574;28;45013;-70
2023/08/29 05:27:36;;;;;;;1.50;1.50;;;22.10;68.60;;;;;;5106811;27;43440;-72
2023/08/29 05:30:05;;;;;;;1.80;1.80;;;22.20;68.60;;;;;;5096841;28;43413;-70
2023/08/29 05:32:33;;;;;;;2.23;2.20;;;22.20;68.30;;;;;;5092661;27;45532;-71
2023/08/29 05:35:01;;;;;;;1.90;1.90;;;22.30;67.80;;;;;;5113179;27;43808;-71
2023/08/29 05:37:36;;;;;;;1.90;1.90;;;22.40;67.40;;;;;;5094574;28;43389;-69
2023/08/29 05:40:10;;;;;;;2.10;2.10;;;22.40;67.20;;;;;;5097112;28;43513;-70
2023/08/29 05:42:42;;;;;;;2.83;2.20;;;22.40;67.60;;;;;;5078301;27;45749;-71
2023/08/29 06:13:12;;;;;;;2.90;2.67;;;22.00;68.30;;;;;;5156051;27;43465;-70
2023/08/29 06:15:40;;;;;;;2.50;2.50;;;22.00;68.50;;;;;;5157025;27;43366;-70
2023/08/29 06:18:08;;;;;;;2.90;2.90;;;22.10;69.00;;;;;;5136630;27;43405;-70
2023/08/29 06:20:37;;;;;;;2.60;2.47;;;22.20;67.80;;;;;;5137104;27;43483;-70
2023/08/29 06:23:05;;;;;;;3.00;2.90;;;22.30;67.40;;;;;;5156798;27;43623;-70
2023/08/29 06:25:33;;;;;;;2.83;2.80;;;22.40;67.00;;;;;;5156136;27;43369;-70
2023/08/29 06:28:01;;;;;;;3.20;3.00;;;22.50;66.70;;;;;;5170945;27;43492;-70
2023/08/29 06:30:31;;;;;;;3.30;3.20;;;22.50;66.50;;;;;;5156082;27;43426;-70
2023/08/29 06:32:59;;;;;;;3.50;3.40;;;22.50;67.00;;;;;;5132166;27;45852;-71
2023/08/29 06:35:27;;;;;;;4.00;3.90;;;22.40;67.00;;;;;;5155991;27;43435;-70
2023/08/29 06:37:55;;;;;;;4.00;3.90;;;22.30;66.90;;;;;;5150737;27;43475;-70
2023/08/29 06:40:24;;;;;;;4.43;4.33;;;22.30;67.10;;;;;;5160004;27;43616;-70
2023/08/29 06:42:52;;;;;;;4.13;4.00;;;22.30;68.10;;;;;;5152989;27;43619;-69
2023/08/29 06:45:20;;;;;;;5.00;4.87;;;22.20;67.70;;;;;;5156363;27;43319;-70
2023/08/29 06:47:51;;;;;;;5.27;5.07;;;22.20;68.20;;;;;;5154248;27;43452;-69
2023/08/29 06:50:19;;;;;;;5.60;5.40;;;22.10;67.50;;;;;;5158143;27;43384;-71
2023/08/29 06:52:47;;;;;;;5.00;4.80;;;22.10;67.80;;;;;;5154703;27;43693;-71
2023/08/29 06:55:16;;;;;;;5.73;5.33;;;22.20;68.80;;;;;;5127132;27;44741;-71
2023/08/29 06:57:44;;;;;;;5.93;5.63;;;22.10;68.00;;;;;;5127349;27;43360;-70
2023/08/29 07:00:13;;;;;;;5.93;5.63;;;22.10;67.60;;;;;;5146951;27;43457;-71
2023/08/29 07:02:41;;;;;;;5.37;5.07;;;22.10;67.50;;;;;;5145260;27;43619;-71
2023/08/29 07:05:11;;;;;;;5.63;5.27;;;22.20;67.30;;;;;;5146217;27;44050;-71
2023/08/29 07:07:40;;;;;;;6.23;5.90;;;22.30;66.80;;;;;;5145799;27;43447;-71
2023/08/29 07:10:09;;;;;;;5.80;5.40;;;22.40;66.60;;;;;;5141641;27;43488;-70
2023/08/29 07:12:37;;;;;;;5.30;5.10;;;22.40;66.60;;;;;;5139265;27;43852;-73
2023/08/29 07:15:06;;;;;;;5.50;5.30;;;22.40;67.00;;;;;;5132493;27;43925;-73
2023/08/29 07:17:34;;;;;;;5.37;5.07;;;22.30;67.20;;;;;;5132472;27;43370;-74
2023/08/29 07:20:08;;;;;;;6.17;5.77;;;22.20;67.00;;;;;;5132968;27;43382;-73
2023/08/29 07:22:38;;;;;;;5.83;5.57;;;22.20;67.00;;;;;;5132535;27;43607;-73
2023/08/29 07:25:06;;;;;;;5.83;5.63;;;22.20;67.40;;;;;;5113110;27;44007;-73
2023/08/29 07:27:34;;;;;;;6.53;6.10;;;22.20;67.70;;;;;;5131758;27;43482;-73
2023/08/29 07:30:03;;;;;;;6.57;6.27;;;22.20;67.70;;;;;;5131960;27;43396;-72
2023/08/29 07:32:31;;;;;;;6.50;6.03;;;22.10;67.20;;;;;;5131544;27;43618;-69
2023/08/29 07:34:59;;;;;;;5.73;5.47;;;22.10;67.50;;;;;;5113156;27;44733;-70
2023/08/29 07:37:27;;;;;;;5.37;5.20;;;22.10;67.70;;;;;;5113275;27;43398;-69
2023/08/29 07:39:59;;;;;;;7.10;6.80;;;22.10;67.90;;;;;;5128787;27;43446;-69
2023/08/29 07:42:27;;;;;;;6.27;5.97;;;22.00;67.40;;;;;;5112821;27;45798;-69
2023/08/29 07:44:55;;;;;;;6.13;5.93;;;22.10;67.90;;;;;;5111689;27;44598;-73
2023/08/29 07:47:23;;;;;;;6.20;5.80;;;22.10;66.90;;;;;;5131824;27;43480;-73
2023/08/29 07:49:51;;;;;;;5.80;5.60;;;22.20;66.60;;;;;;5132166;27;43497;-72
2023/08/29 07:52:19;;;;;;;6.97;6.47;;;22.30;66.20;;;;;;5128867;27;43942;-72
2023/08/29 07:54:47;;;;;;;6.13;5.93;;;22.40;66.00;;;;;;5131911;27;43472;-72
2023/08/29 07:57:17;;;;;;;6.10;5.80;;;22.30;66.40;;;;;;5112792;27;43378;-72
2023/08/29 07:59:45;;;;;;;6.63;6.33;;;22.30;66.80;;;;;;5131682;27;44057;-72
2023/08/29 08:02:13;;;;;;;6.20;5.90;;;22.20;66.70;;;;;;5111851;27;45007;-72
2023/08/29 08:04:41;;;;;;;6.70;6.40;;;22.20;66.60;;;;;;5132703;27;43426;-67
2023/08/29 08:07:09;;;;;;;6.53;6.10;;;22.20;67.00;;;;;;5132708;27;43436;-66
2023/08/29 08:09:37;;;;;;;5.43;5.30;;;22.10;67.20;;;;;;5113829;27;43480;-66
2023/08/29 08:12:06;;;;;;;6.43;6.23;;;22.10;67.40;;;;;;5104354;27;44344;-67
2023/08/29 08:14:35;;;;;;;5.63;5.43;;;22.10;67.10;;;;;;5127596;27;43502;-67
2023/08/29 08:17:03;;;;;;;6.40;6.20;;;22.10;67.10;;;;;;5113329;27;43457;-67
2023/08/29 08:19:31;;;;;;;5.90;5.70;;;22.10;66.90;;;;;;5113781;27;43382;-66
2023/08/29 08:21:59;;;;;;;5.80;5.50;;;22.20;66.70;;;;;;5132456;27;43627;-67
2023/08/29 08:24:27;;;;;;;5.53;5.33;;;22.20;67.00;;;;;;5111730;27;44437;-68
2023/08/29 08:26:55;;;;;;;5.80;5.50;;;22.20;67.00;;;;;;5132387;27;43697;-67
2023/08/29 08:29:23;;;;;;;5.90;5.60;;;22.20;66.80;;;;;;5132428;27;43584;-66
2023/08/29 08:31:55;;;;;;;4.90;4.80;;;22.10;66.80;;;;;;5132042;27;43742;-66
2023/08/29 08:34:23;;;;;;;4.87;4.77;;;22.10;67.20;;;;;;5131946;27;43339;-67
2023/08/29 08:36:51;;;;;;;5.53;5.23;;;22.10;67.30;;;;;;5132328;27;43425;-67
2023/08/29 08:39:19;;;;;;;5.07;4.87;;;22.10;67.20;;;;;;5113513;27;43508;-66
2023/08/29 08:41:47;;;;;;;5.10;4.90;;;22.10;67.00;;;;;;5112175;27;45637;-67
2023/08/29 08:44:16;;;;;;;4.23;4.13;;;22.10;67.30;;;;;;5132394;27;43489;-66
2023/08/29 08:46:45;;;;;;;4.67;4.57;;;22.10;67.50;;;;;;5130794;27;44083;-67
2023/08/29 08:49:14;;;;;;;5.30;5.10;;;22.00;67.40;;;;;;5132771;27;43440;-69
2023/08/29 08:51:42;;;;;;;5.10;4.90;;;22.00;66.90;;;;;;5131909;27;43793;-67
2023/08/29 08:54:10;;;;;;;4.83;4.63;;;22.10;66.60;;;;;;5111833;27;43440;-68
2023/08/29 08:56:39;;;;;;;5.30;5.00;;;22.20;66.40;;;;;;5112948;27;43416;-66
2023/08/29 08:59:07;;;;;;;4.57;4.47;;;22.20;65.80;;;;;;5132023;27;43929;-66
2023/08/29 09:01:35;;;;;;;4.90;4.70;;;22.30;65.50;;;;;;5130553;27;43615;-66
2023/08/29 09:04:03;;;;;;;5.00;4.60;;;22.30;65.70;;;;;;5130919;27;43437;-67
2023/08/29 09:06:32;;;;;;;4.20;4.00;;;22.30;66.90;;;;;;5130975;27;44006;-67
2023/08/29 09:09:15;;;;;;;4.90;4.70;;;22.20;66.40;;;;;;5132173;27;43333;-67
2023/08/29 09:11:43;;;;;;;4.30;4.20;;;22.20;66.40;;;;;;5125809;27;44209;-66
2023/08/29 09:14:13;;;;;;;4.33;4.23;;;22.20;66.30;;;;;;5135776;27;43369;-71
2023/08/29 09:16:42;;;;;;;3.83;3.73;;;22.10;66.70;;;;;;5118169;27;43485;-70
2023/08/29 09:19:10;;;;;;;4.10;4.00;;;22.10;66.90;;;;;;5137916;27;43448;-70
2023/08/29 09:21:47;;;;;;;4.20;4.10;;;22.10;66.90;;;;;;5116902;27;45689;-71
2023/08/29 09:24:32;;;;;;;4.17;3.87;;;22.10;66.30;;;;;;5118692;27;45146;-70
2023/08/29 09:27:00;;;;;;;4.07;3.97;;;22.10;66.70;;;;;;5118656;27;43467;-70
2023/08/29 09:29:28;;;;;;;3.53;3.43;;;22.00;66.90;;;;;;5119726;27;43400;-70
2023/08/29 09:31:58;;;;;;;3.63;3.50;;;22.00;67.00;;;;;;5138212;27;43619;-70
2023/08/29 09:34:26;;;;;;;3.73;3.60;;;22.00;66.40;;;;;;5137372;27;43437;-69
2023/08/29 09:36:56;;;;;;;3.50;3.40;;;22.00;66.20;;;;;;5115900;27;43315;-69
2023/08/29 09:39:24;;;;;;;3.50;3.30;;;22.10;66.00;;;;;;5131882;27;44216;-71
2023/08/29 09:42:00;;;;;;;3.67;3.57;;;22.20;65.70;;;;;;5132313;27;45769;-70
2023/08/29 09:44:28;;;;;;;3.80;3.60;;;22.30;65.20;;;;;;5122354;27;44669;-70
2023/08/29 09:46:56;;;;;;;3.53;3.33;;;22.30;65.20;;;;;;5129775;27;43393;-70
2023/08/29 09:49:31;;;;;;;3.40;3.30;;;22.30;65.80;;;;;;5140199;27;43541;-70
2023/08/29 09:52:02;;;;;;;3.30;3.10;;;22.20;66.10;;;;;;5132623;27;43708;-70
2023/08/29 09:54:30;;;;;;;3.13;3.03;;;22.20;65.90;;;;;;5123679;27;45019;-70
2023/08/29 09:56:58;;;;;;;3.40;3.20;;;22.20;66.00;;;;;;5124097;27;43695;-70
2023/08/29 09:59:26;;;;;;;3.10;3.00;;;22.10;66.30;;;;;;5139236;27;43492;-70
2023/08/29 10:01:54;;;;;;;2.80;2.70;;;22.10;66.60;;;;;;5122967;27;44633;-70
2023/08/29 10:04:23;;;;;;;2.87;2.77;;;22.10;66.80;;;;;;5140769;27;43358;-70
2023/08/29 10:06:52;;;;;;;3.20;3.10;;;22.00;66.50;;;;;;5142783;27;43376;-70
2023/08/29 10:09:21;;;;;;;2.90;2.90;;;22.00;66.70;;;;;;5136279;27;43430;-70
2023/08/29 10:11:49;;;;;;;3.13;3.03;;;22.00;66.90;;;;;;5138953;27;43607;-70
2023/08/29 10:14:22;;;;;;;3.40;3.20;;;22.00;67.10;;;;;;5137419;27;43402;-69
2023/08/29 10:16:50;;;;;;;2.93;2.93;;;22.00;67.10;;;;;;5121201;27;43429;-70
2023/08/29 10:19:18;;;;;;;2.93;2.83;;;22.00;67.00;;;;;;5136112;27;43439;-70
2023/08/29 10:21:46;;;;;;;2.70;2.60;;;22.00;66.90;;;;;;5137370;27;44004;-69
2023/08/29 10:24:14;;;;;;;2.77;2.67;;;22.10;66.70;;;;;;5137719;27;43463;-70
2023/08/29 10:26:44;;;;;;;3.10;2.90;;;22.20;66.50;;;;;;5119860;27;43452;-69
2023/08/29 10:29:12;;;;;;;2.97;2.87;;;22.30;66.10;;;;;;5117219;27;43456;-69
2023/08/29 10:31:40;;;;;;;2.90;2.80;;;22.30;66.20;;;;;;5118171;27;46306;-69
2023/08/29 10:34:08;;;;;;;2.77;2.67;;;22.30;66.50;;;;;;5140281;27;43453;-69
2023/08/29 10:36:36;;;;;;;2.77;2.67;;;22.20;66.50;;;;;;5121301;27;43394;-70
2023/08/29 10:39:07;;;;;;;2.90;2.70;;;22.20;66.50;;;;;;5123634;27;43390;-70
2023/08/29 10:41:46;;;;;;;3.20;3.00;;;22.20;66.70;;;;;;5139359;27;43752;-70
2023/08/29 10:44:36;;;;;;;2.83;2.73;;;22.10;66.90;;;;;;5139073;27;43412;-69
2023/08/29 10:47:15;;;;;;;2.90;2.80;;;22.10;67.10;;;;;;5140264;27;43496;-69
2023/08/29 10:49:43;;;;;;;3.00;2.90;;;22.10;67.10;;;;;;5122693;27;43513;-69
2023/08/29 10:52:12;;;;;;;2.80;2.70;;;22.10;67.20;;;;;;5144131;27;43744;-70
2023/08/29 10:54:40;;;;;;;2.90;2.70;;;22.00;67.30;;;;;;5140313;27;43419;-70
2023/08/29 10:57:28;;;;;;;2.87;2.77;;;22.10;67.50;;;;;;5127393;27;43428;-70
2023/08/29 10:59:56;;;;;;;3.23;3.00;;;22.00;67.50;;;;;;5142315;27;43468;-71
2023/08/29 11:02:26;;;;;;;2.80;2.70;;;22.00;67.50;;;;;;5138835;27;43879;-71
2023/08/29 11:05:10;;;;;;;3.37;3.07;;;22.10;67.50;;;;;;5147779;27;43389;-70
2023/08/29 11:07:39;;;;;;;2.90;2.70;;;22.10;67.20;;;;;;5139295;27;43437;-70
2023/08/29 11:10:20;;;;;;;2.70;2.60;;;22.30;66.90;;;;;;5143680;27;43417;-70
2023/08/29 11:13:09;;;;;;;2.63;2.53;;;22.30;66.70;;;;;;5140791;27;43564;-70
2023/08/29 11:16:10;;;;;;;2.60;2.50;;;22.30;66.80;;;;;;5140449;27;43463;-70
2023/08/29 11:18:38;;;;;;;2.40;2.40;;;22.20;67.80;;;;;;5043535;28;43460;-70
2023/08/29 11:21:07;;;;;;;2.70;2.60;;;22.10;67.30;;;;;;5060871;28;43458;-69
2023/08/29 11:23:38;;;;;;;2.40;2.40;;;22.10;67.50;;;;;;5082328;27;45971;-70
2023/08/29 11:26:08;;;;;;;1.97;1.93;;;22.10;67.50;;;;;;5139293;27;43467;-70
2023/08/29 11:28:41;;;;;;;2.40;2.30;;;22.10;67.70;;;;;;5140880;27;43408;-70
2023/08/29 11:31:09;;;;;;;2.40;2.30;;;22.00;67.80;;;;;;5124259;27;43467;-70
2023/08/29 11:33:37;;;;;;;2.50;2.40;;;22.00;68.00;;;;;;5140422;27;43582;-70
2023/08/29 11:36:06;;;;;;;2.13;2.13;;;22.00;68.00;;;;;;5144643;27;43404;-70
2023/08/29 11:38:34;;;;;;;2.40;2.33;;;22.00;68.10;;;;;;5142033;27;43477;-70
2023/08/29 11:41:05;;;;;;;2.50;2.40;;;22.00;68.10;;;;;;5143969;27;43354;-70
2023/08/29 11:43:55;;;;;;;2.10;2.10;;;22.00;68.40;;;;;;5139195;27;43837;-70
2023/08/29 11:46:44;;;;;;;2.10;2.10;;;22.00;68.30;;;;;;5142232;27;43479;-70
2023/08/29 11:49:13;;;;;;;2.50;2.40;;;22.10;68.10;;;;;;5118807;27;44055;-70
2023/08/29 11:51:41;;;;;;;2.20;2.20;;;22.20;67.70;;;;;;5137532;27;43453;-70
2023/08/29 11:54:40;;;;;;;2.10;2.10;;;22.30;67.50;;;;;;5138479;27;43605;-71
2023/08/29 11:57:11;;;;;;;1.90;1.90;;;22.30;67.40;;;;;;5141170;27;44086;-70
2023/08/29 11:59:43;;;;;;;1.90;1.90;;;22.20;67.40;;;;;;5138367;27;43452;-70
2023/08/29 12:02:12;;;;;;;2.17;2.07;;;22.20;67.70;;;;;;5122244;27;43486;-70
2023/08/29 12:04:41;;;;;;;2.20;2.10;;;22.10;67.90;;;;;;5138679;27;43869;-70
2023/08/29 12:07:11;;;;;;;2.00;2.00;;;22.10;68.10;;;;;;5121703;27;44728;-70
2023/08/29 12:09:41;;;;;;;2.00;2.00;;;22.10;68.10;;;;;;5136958;27;43409;-70
2023/08/29 12:12:10;;;;;;;1.90;1.90;;;22.10;68.20;;;;;;5140003;27;43439;-71
2023/08/29 12:14:51;;;;;;;2.23;2.13;;;22.00;68.30;;;;;;5138606;27;43610;-71
2023/08/29 12:17:19;;;;;;;2.50;2.30;;;22.00;68.40;;;;;;5138323;27;43461;-70
2023/08/29 12:19:48;;;;;;;1.93;1.87;;;22.00;68.40;;;;;;5137258;27;43380;-70
2023/08/29 12:22:19;;;;;;;2.00;1.90;;;22.00;68.50;;;;;;5139027;27;43439;-71
2023/08/29 12:24:54;;;;;;;2.30;2.20;;;22.00;68.50;;;;;;5138819;27;43851;-70
2023/08/29 12:27:22;;;;;;;2.23;2.10;;;22.00;68.80;;;;;;5137197;27;43524;-70
2023/08/29 12:29:51;;;;;;;2.47;2.37;;;22.00;68.80;;;;;;5119402;27;43492;-71
2023/08/29 12:32:19;;;;;;;2.23;2.07;;;22.10;68.60;;;;;;5138242;27;43452;-71
2023/08/29 12:34:48;;;;;;;2.83;2.43;;;22.10;68.30;;;;;;5137367;27;43865;-71
2023/08/29 12:37:16;;;;;;;2.40;2.30;;;22.10;68.20;;;;;;5138686;27;43397;-70
2023/08/29 12:39:45;;;;;;;2.10;2.10;;;22.10;68.20;;;;;;5140329;27;43410;-69
2023/08/29 12:42:13;;;;;;;2.33;2.20;;;22.10;68.50;;;;;;5140179;27;43981;-68
2023/08/29 12:44:42;;;;;;;2.17;2.10;;;22.10;68.50;;;;;;5131242;27;43627;-66
2023/08/29 12:47:11;;;;;;;2.20;2.10;;;22.10;68.40;;;;;;5131451;27;44212;-65
2023/08/29 12:49:39;;;;;;;2.37;2.27;;;22.10;68.50;;;;;;5132723;27;43655;-67
2023/08/29 12:52:07;;;;;;;1.90;1.90;;;22.00;68.50;;;;;;5131795;27;43576;-67
2023/08/29 12:54:36;;;;;;;2.43;2.33;;;22.00;68.70;;;;;;5129640;27;43701;-67
2023/08/29 12:57:04;;;;;;;2.20;2.10;;;22.00;68.80;;;;;;5130499;27;43474;-67
2023/08/29 12:59:33;;;;;;;2.20;2.00;;;21.90;68.90;;;;;;5132938;27;44084;-67
2023/08/29 13:02:02;;;;;;;1.90;1.90;;;21.90;69.00;;;;;;5115047;27;43516;-67
2023/08/29 13:04:31;;;;;;;2.13;2.10;;;21.90;69.00;;;;;;5135661;27;43615;-67
2023/08/29 13:06:59;;;;;;;2.20;2.17;;;21.90;69.10;;;;;;5111839;27;44748;-68
2023/08/29 13:09:27;;;;;;;2.13;2.13;;;21.90;69.30;;;;;;5132038;27;43423;-70
2023/08/29 13:12:07;;;;;;;2.00;2.00;;;22.00;69.10;;;;;;5131896;27;43463;-66
2023/08/29 13:14:35;;;;;;;2.00;2.00;;;22.10;68.60;;;;;;5131023;27;44172;-66
2023/08/29 13:17:07;;;;;;;2.20;2.10;;;22.30;68.10;;;;;;5129917;27;43410;-67
2023/08/29 13:19:40;;;;;;;2.13;2.13;;;22.50;67.40;;;;;;5131978;27;43550;-67
2023/08/29 13:22:08;;;;;;;2.00;2.00;;;22.70;66.70;;;;;;5131935;27;43416;-66
2023/08/29 13:24:37;;;;;;;2.00;2.00;;;22.90;66.10;;;;;;5130596;27;44047;-66
2023/08/29 13:27:05;;;;;;;2.40;2.30;;;23.10;65.60;;;;;;5109485;27;45061;-66
2023/08/29 13:29:33;;;;;;;2.10;2.00;;;23.20;65.40;;;;;;5130480;27;43992;-67